CXA519 CYBG-CYQB
Flight info
| Callsign | CXA519 |
|---|---|
| Flight time | 0h 34m |
| Altitude | 7000 |
| Route | TADES KAROT6 |
| Aircraft | C414/L-SBDFGRY/S |
Departure
| Time | 2026-05-03 21:15 |
|---|---|
| Airport | Saguenay-Bagotville Airport (CYBG) |
Arrival
| Time | 2026-05-03 21:50 |
|---|---|
| Airport | Quebec Jean Lesage International Airport (CYQB) |
| Time | Latitude | Longitude | Altitude | Speed | Heading |
|---|---|---|---|---|---|
| 2026-05-03 21:13 | 48.33173 | -70.97600 | 514 ft | 0 kts | 271° |
| 2026-05-03 21:14 | 48.33173 | -70.97607 | 505 ft | 10 kts | 270° |
| 2026-05-03 21:14 | 48.33171 | -70.98042 | 514 ft | 69 kts | 272° |
| 2026-05-03 21:15 | 48.33182 | -70.98925 | 616 ft | 94 kts | 272° |
| 2026-05-03 21:15 | 48.33072 | -70.99901 | 869 ft | 99 kts | 236° |
| 2026-05-03 21:15 | 48.32450 | -71.00398 | 1138 ft | 106 kts | 199° |
| 2026-05-03 21:15 | 48.31682 | -71.00644 | 1416 ft | 121 kts | 195° |
| 2026-05-03 21:16 | 48.30829 | -71.00845 | 1790 ft | 126 kts | 195° |
| 2026-05-03 21:16 | 48.29934 | -71.01005 | 2123 ft | 133 kts | 188° |
| 2026-05-03 21:16 | 48.28982 | -71.01130 | 2426 ft | 141 kts | 191° |
| 2026-05-03 21:16 | 48.27979 | -71.01271 | 2731 ft | 148 kts | 191° |
| 2026-05-03 21:17 | 48.26936 | -71.01424 | 3041 ft | 153 kts | 190° |
| 2026-05-03 21:17 | 48.25866 | -71.01585 | 3339 ft | 156 kts | 190° |
| 2026-05-03 21:17 | 48.24774 | -71.01749 | 3640 ft | 159 kts | 189° |
| 2026-05-03 21:17 | 48.23664 | -71.01921 | 3936 ft | 161 kts | 190° |
| 2026-05-03 21:18 | 48.22555 | -71.02092 | 4219 ft | 162 kts | 190° |
| 2026-05-03 21:18 | 48.21433 | -71.02264 | 4524 ft | 161 kts | 191° |
| 2026-05-03 21:18 | 48.20316 | -71.02430 | 4814 ft | 161 kts | 191° |
| 2026-05-03 21:18 | 48.19197 | -71.02467 | 5094 ft | 164 kts | 170° |
| 2026-05-03 21:19 | 48.18114 | -71.01916 | 5387 ft | 163 kts | 169° |
| 2026-05-03 21:19 | 48.17011 | -71.01755 | 5680 ft | 158 kts | 189° |
| 2026-05-03 21:19 | 48.15931 | -71.01994 | 5968 ft | 157 kts | 193° |
| 2026-05-03 21:19 | 48.14844 | -71.02272 | 6261 ft | 159 kts | 193° |
| 2026-05-03 21:20 | 48.13754 | -71.02550 | 6537 ft | 160 kts | 194° |
| 2026-05-03 21:20 | 48.12654 | -71.02834 | 6805 ft | 162 kts | 195° |
| 2026-05-03 21:20 | 48.11491 | -71.03137 | 6826 ft | 177 kts | 193° |
| 2026-05-03 21:20 | 48.10246 | -71.03458 | 6831 ft | 186 kts | 192° |
| 2026-05-03 21:21 | 48.08950 | -71.03788 | 6825 ft | 192 kts | 193° |
| 2026-05-03 21:21 | 48.07620 | -71.04127 | 6824 ft | 195 kts | 193° |
| 2026-05-03 21:21 | 48.06280 | -71.04470 | 6824 ft | 197 kts | 194° |
| 2026-05-03 21:21 | 48.04919 | -71.04818 | 6825 ft | 199 kts | 194° |
| 2026-05-03 21:22 | 48.03567 | -71.05164 | 6823 ft | 199 kts | 192° |
| 2026-05-03 21:22 | 48.02196 | -71.05512 | 6818 ft | 200 kts | 194° |
| 2026-05-03 21:22 | 48.00822 | -71.05862 | 6814 ft | 200 kts | 193° |
| 2026-05-03 21:22 | 47.99447 | -71.06216 | 6814 ft | 201 kts | 194° |
| 2026-05-03 21:23 | 47.98063 | -71.06569 | 6812 ft | 201 kts | 192° |
| 2026-05-03 21:23 | 47.96681 | -71.06917 | 6811 ft | 201 kts | 192° |
| 2026-05-03 21:23 | 47.95298 | -71.07268 | 6812 ft | 202 kts | 194° |
| 2026-05-03 21:23 | 47.93917 | -71.07622 | 6806 ft | 202 kts | 192° |
| 2026-05-03 21:24 | 47.92526 | -71.07976 | 6803 ft | 203 kts | 193° |
| 2026-05-03 21:24 | 47.91137 | -71.08329 | 6801 ft | 202 kts | 194° |
| 2026-05-03 21:24 | 47.89749 | -71.08682 | 6802 ft | 202 kts | 193° |
| 2026-05-03 21:24 | 47.88357 | -71.09037 | 6803 ft | 203 kts | 193° |
| 2026-05-03 21:25 | 47.86965 | -71.09390 | 6802 ft | 203 kts | 193° |
| 2026-05-03 21:25 | 47.85567 | -71.09743 | 6799 ft | 204 kts | 193° |
| 2026-05-03 21:25 | 47.84184 | -71.10094 | 6800 ft | 204 kts | 192° |
| 2026-05-03 21:25 | 47.82783 | -71.10450 | 6802 ft | 205 kts | 193° |
| 2026-05-03 21:26 | 47.81360 | -71.10809 | 6803 ft | 205 kts | 193° |
| 2026-05-03 21:26 | 47.79974 | -71.11161 | 6802 ft | 205 kts | 193° |
| 2026-05-03 21:26 | 47.78570 | -71.11515 | 6803 ft | 205 kts | 192° |
| 2026-05-03 21:26 | 47.77164 | -71.11870 | 6793 ft | 204 kts | 193° |
| 2026-05-03 21:27 | 47.75766 | -71.12226 | 6798 ft | 204 kts | 193° |
| 2026-05-03 21:27 | 47.74366 | -71.12579 | 6792 ft | 203 kts | 193° |
| 2026-05-03 21:27 | 47.72978 | -71.12923 | 6791 ft | 202 kts | 194° |
| 2026-05-03 21:27 | 47.71587 | -71.13280 | 6791 ft | 203 kts | 192° |
| 2026-05-03 21:28 | 47.70189 | -71.13632 | 6786 ft | 204 kts | 193° |
| 2026-05-03 21:28 | 47.68786 | -71.13987 | 6781 ft | 205 kts | 194° |
| 2026-05-03 21:28 | 47.67380 | -71.14335 | 6776 ft | 205 kts | 192° |
| 2026-05-03 21:28 | 47.65975 | -71.14693 | 6787 ft | 206 kts | 194° |
| 2026-05-03 21:29 | 47.64559 | -71.15059 | 6791 ft | 207 kts | 193° |
| 2026-05-03 21:29 | 47.63141 | -71.15411 | 6794 ft | 206 kts | 192° |
| 2026-05-03 21:29 | 47.61725 | -71.15760 | 6792 ft | 207 kts | 193° |
| 2026-05-03 21:29 | 47.60307 | -71.16113 | 6784 ft | 206 kts | 193° |
| 2026-05-03 21:30 | 47.58892 | -71.16467 | 6789 ft | 206 kts | 193° |
| 2026-05-03 21:30 | 47.57493 | -71.16829 | 6793 ft | 207 kts | 195° |
| 2026-05-03 21:30 | 47.56069 | -71.17190 | 6793 ft | 208 kts | 192° |
| 2026-05-03 21:30 | 47.54644 | -71.17539 | 6795 ft | 208 kts | 193° |
| 2026-05-03 21:31 | 47.53215 | -71.17897 | 6791 ft | 209 kts | 193° |
| 2026-05-03 21:31 | 47.51784 | -71.18258 | 6791 ft | 208 kts | 194° |
| 2026-05-03 21:31 | 47.50356 | -71.18614 | 6782 ft | 208 kts | 192° |
| 2026-05-03 21:31 | 47.48928 | -71.18969 | 6785 ft | 208 kts | 194° |
| 2026-05-03 21:32 | 47.47497 | -71.19331 | 6787 ft | 209 kts | 194° |
| 2026-05-03 21:32 | 47.46059 | -71.19690 | 6783 ft | 209 kts | 192° |
| 2026-05-03 21:32 | 47.44624 | -71.20043 | 6782 ft | 208 kts | 193° |
| 2026-05-03 21:32 | 47.43198 | -71.20397 | 6784 ft | 208 kts | 194° |
| 2026-05-03 21:33 | 47.41771 | -71.20755 | 6788 ft | 209 kts | 193° |
| 2026-05-03 21:33 | 47.40338 | -71.21114 | 6787 ft | 209 kts | 194° |
| 2026-05-03 21:33 | 47.38899 | -71.21476 | 6785 ft | 209 kts | 192° |
| 2026-05-03 21:33 | 47.37467 | -71.21835 | 6783 ft | 209 kts | 193° |
| 2026-05-03 21:34 | 47.36040 | -71.22177 | 6787 ft | 207 kts | 191° |
| 2026-05-03 21:34 | 47.34620 | -71.22531 | 6790 ft | 207 kts | 194° |
| 2026-05-03 21:34 | 47.33197 | -71.22897 | 6794 ft | 209 kts | 193° |
| 2026-05-03 21:34 | 47.31763 | -71.23252 | 6792 ft | 209 kts | 193° |
| 2026-05-03 21:35 | 47.30343 | -71.23602 | 6797 ft | 209 kts | 192° |
| 2026-05-03 21:35 | 47.28912 | -71.23956 | 6795 ft | 208 kts | 193° |
| 2026-05-03 21:35 | 47.27486 | -71.24308 | 6795 ft | 208 kts | 194° |
| 2026-05-03 21:35 | 47.26058 | -71.24663 | 6799 ft | 208 kts | 192° |
| 2026-05-03 21:36 | 47.24628 | -71.25019 | 6798 ft | 209 kts | 192° |
| 2026-05-03 21:36 | 47.23188 | -71.25299 | 6800 ft | 209 kts | 191° |
| 2026-05-03 21:36 | 47.21750 | -71.25624 | 6800 ft | 209 kts | 192° |
| 2026-05-03 21:36 | 47.20306 | -71.25948 | 6798 ft | 210 kts | 192° |
| 2026-05-03 21:37 | 47.18862 | -71.26253 | 6798 ft | 209 kts | 192° |
| 2026-05-03 21:37 | 47.17421 | -71.26557 | 6803 ft | 209 kts | 191° |
| 2026-05-03 21:37 | 47.15988 | -71.26862 | 6800 ft | 208 kts | 193° |
| 2026-05-03 21:37 | 47.14557 | -71.27165 | 6803 ft | 208 kts | 193° |
| 2026-05-03 21:38 | 47.13124 | -71.27457 | 6794 ft | 207 kts | 192° |
| 2026-05-03 21:38 | 47.11690 | -71.27735 | 6794 ft | 210 kts | 185° |
| 2026-05-03 21:38 | 47.10244 | -71.27370 | 6788 ft | 213 kts | 161° |
| 2026-05-03 21:38 | 47.08865 | -71.26549 | 6791 ft | 215 kts | 161° |
| 2026-05-03 21:39 | 47.07476 | -71.25733 | 6792 ft | 215 kts | 160° |
| 2026-05-03 21:39 | 47.06084 | -71.24912 | 6793 ft | 216 kts | 161° |
| 2026-05-03 21:39 | 47.04684 | -71.24081 | 6794 ft | 218 kts | 161° |
| 2026-05-03 21:39 | 47.03280 | -71.23255 | 6800 ft | 217 kts | 160° |
| 2026-05-03 21:40 | 47.01879 | -71.22434 | 6799 ft | 217 kts | 161° |
| 2026-05-03 21:40 | 47.00485 | -71.21610 | 6804 ft | 215 kts | 160° |
| 2026-05-03 21:40 | 46.99126 | -71.20811 | 6803 ft | 212 kts | 161° |
| 2026-05-03 21:40 | 46.97756 | -71.20005 | 6799 ft | 212 kts | 161° |
| 2026-05-03 21:41 | 46.96382 | -71.19198 | 6802 ft | 213 kts | 160° |
| 2026-05-03 21:41 | 46.95006 | -71.18388 | 6805 ft | 213 kts | 161° |
| 2026-05-03 21:41 | 46.93625 | -71.17580 | 6786 ft | 214 kts | 161° |
| 2026-05-03 21:41 | 46.92249 | -71.16776 | 6789 ft | 213 kts | 160° |
| 2026-05-03 21:42 | 46.90876 | -71.15965 | 6798 ft | 213 kts | 161° |
| 2026-05-03 21:42 | 46.89495 | -71.15156 | 6801 ft | 213 kts | 160° |
| 2026-05-03 21:42 | 46.88120 | -71.14353 | 6801 ft | 213 kts | 160° |
| 2026-05-03 21:42 | 46.86748 | -71.13549 | 6800 ft | 213 kts | 161° |
| 2026-05-03 21:43 | 46.85371 | -71.12738 | 6792 ft | 214 kts | 159° |
| 2026-05-03 21:43 | 46.84141 | -71.11518 | 6785 ft | 216 kts | 136° |
| 2026-05-03 21:43 | 46.83114 | -71.09936 | 6787 ft | 217 kts | 135° |
| 2026-05-03 21:43 | 46.82059 | -71.08342 | 6782 ft | 218 kts | 135° |
| 2026-05-03 21:44 | 46.80822 | -71.07143 | 6784 ft | 213 kts | 167° |
| 2026-05-03 21:44 | 46.79347 | -71.07137 | 6397 ft | 214 kts | 200° |
| 2026-05-03 21:44 | 46.78190 | -71.08293 | 5880 ft | 197 kts | 237° |
| 2026-05-03 21:44 | 46.77727 | -71.10085 | 5361 ft | 186 kts | 264° |
| 2026-05-03 21:45 | 46.77790 | -71.11938 | 4842 ft | 182 kts | 283° |
| 2026-05-03 21:45 | 46.77966 | -71.13759 | 4336 ft | 181 kts | 276° |
| 2026-05-03 21:45 | 46.78021 | -71.15587 | 3813 ft | 180 kts | 273° |
| 2026-05-03 21:45 | 46.78042 | -71.17406 | 3297 ft | 178 kts | 273° |
| 2026-05-03 21:46 | 46.78058 | -71.19204 | 2778 ft | 177 kts | 272° |
| 2026-05-03 21:46 | 46.78077 | -71.20993 | 2257 ft | 176 kts | 272° |
| 2026-05-03 21:46 | 46.78098 | -71.22766 | 1738 ft | 175 kts | 273° |
| 2026-05-03 21:46 | 46.78115 | -71.24529 | 1195 ft | 171 kts | 272° |
| 2026-05-03 21:47 | 46.78129 | -71.26267 | 797 ft | 167 kts | 274° |
| 2026-05-03 21:47 | 46.78167 | -71.27845 | 780 ft | 147 kts | 270° |
| 2026-05-03 21:47 | 46.78158 | -71.29161 | 778 ft | 112 kts | 273° |
| 2026-05-03 21:47 | 46.78178 | -71.30217 | 779 ft | 100 kts | 272° |
| 2026-05-03 21:48 | 46.78186 | -71.31226 | 781 ft | 99 kts | 272° |
| 2026-05-03 21:48 | 46.78198 | -71.32242 | 789 ft | 104 kts | 272° |
| 2026-05-03 21:48 | 46.78196 | -71.33340 | 799 ft | 112 kts | 270° |
| 2026-05-03 21:48 | 46.78277 | -71.34460 | 858 ft | 110 kts | 282° |
| 2026-05-03 21:49 | 46.78436 | -71.35524 | 790 ft | 109 kts | 282° |
| 2026-05-03 21:49 | 46.78565 | -71.36634 | 458 ft | 108 kts | 279° |
| 2026-05-03 21:49 | 46.78654 | -71.37663 | 337 ft | 96 kts | 280° |
| 2026-05-03 21:49 | 46.78741 | -71.38602 | 247 ft | 84 kts | 279° |
| 2026-05-03 21:50 | 46.78818 | -71.39379 | 240 ft | 73 kts | 278° |
| 2026-05-03 21:50 | 46.78891 | -71.39950 | 242 ft | 25 kts | 284° |
| 2026-05-03 21:50 | 46.78976 | -71.39979 | 241 ft | 22 kts | 28° |
| 2026-05-03 21:50 | 46.79071 | -71.39876 | 240 ft | 0 kts | 37° |